Time;durP1;ratioP1;P1;durP2;ratioP2;P2;SDS_P1;SDS_P2;PMS_P1;PMS_P2;Temp;Humidity;BMP_temperature;BMP_pressure;BME280_temperature;BME280_humidity;BME280_pressure;Samples;Min_cycle;Max_cycle;Signal;HPM_P1;HPM_P2
2023/08/24 00:02:18;;;;;;;;;;;;;;;25.67;58.28;100655.13;7398473;19;1500;-48
2023/08/24 00:04:46;;;;;;;;;;;;;;;25.73;58.02;100654.38;7398359;19;1350;-48
2023/08/24 00:07:15;;;;;;;;;;;;;;;25.76;57.93;100667.53;7395382;19;1848;-48
2023/08/24 00:09:43;;;;;;;;;;;;;;;25.83;57.88;100662.25;7398821;19;1594;-48
2023/08/24 00:12:12;;;;;;;;;;;;;;;25.74;58.23;100666.03;7398529;19;1855;-48
2023/08/24 00:14:40;;;;;;;;;;;;;;;25.77;57.86;100649.44;7398241;19;1426;-48
2023/08/24 00:17:11;;;;;;;;;;;;;;;25.87;57.79;100655.44;7397873;19;1249;-49
2023/08/24 00:19:39;;;;;;;;;;;;;;;26.08;57.12;100662.88;7397684;19;1512;-49
2023/08/24 00:22:07;;;;;;;;;;;;;;;25.86;57.92;100669.16;7397068;19;1449;-48
2023/08/24 00:24:35;;;;;;;;;;;;;;;25.87;57.70;100665.44;7397338;19;1412;-48
2023/08/24 00:27:04;;;;;;;;;;;;;;;25.82;57.89;100678.69;7394723;19;1868;-48
2023/08/24 00:29:32;;;;;;;;;;;;;;;25.83;57.82;100672.25;7397579;19;1424;-48
2023/08/24 00:32:00;;;;;;;;;;;;;;;25.83;57.66;100697.47;7398183;19;1456;-48
2023/08/24 00:34:31;;;;;;;;;;;;;;;25.76;58.13;100708.16;7398192;19;1496;-48
2023/08/24 00:37:00;;;;;;;;;;;;;;;25.88;57.52;100703.16;7394967;19;1468;-49
2023/08/24 00:39:28;;;;;;;;;;;;;;;25.85;57.78;100684.59;7398186;19;1531;-49
2023/08/24 00:41:57;;;;;;;;;;;;;;;25.90;57.33;100686.72;7398284;19;1914;-49
2023/08/24 00:44:25;;;;;;;;;;;;;;;25.90;57.80;100700.28;7398508;19;1532;-49
2023/08/24 00:46:54;;;;;;;;;;;;;;;25.64;58.58;100709.63;7396388;19;1837;-49
2023/08/24 00:49:23;;;;;;;;;;;;;;;25.80;57.97;100714.94;7396103;19;1460;-48
2023/08/24 00:51:54;;;;;;;;;;;;;;;25.96;57.34;100718.53;7396422;19;1487;-48
2023/08/24 00:54:22;;;;;;;;;;;;;;;26.04;57.31;100710.34;7396382;19;1460;-48
2023/08/24 00:56:50;;;;;;;;;;;;;;;25.97;57.46;100712.94;7394392;19;1450;-48
2023/08/24 00:59:19;;;;;;;;;;;;;;;25.92;57.70;100700.97;7394844;19;1596;-49
2023/08/24 01:01:49;;;;;;;;;;;;;;;25.93;57.45;100697.25;7397021;19;1543;-49
2023/08/24 01:04:18;;;;;;;;;;;;;;;25.88;57.60;100689.63;7395999;19;1432;-48
2023/08/24 01:06:46;;;;;;;;;;;;;;;25.83;58.02;100692.06;7395460;19;1853;-49
2023/08/24 01:09:17;;;;;;;;;;;;;;;25.91;57.86;100683.03;7395752;19;1551;-49
2023/08/24 01:11:48;;;;;;;;;;;;;;;25.92;57.57;100699.09;7396054;19;1495;-49
2023/08/24 01:14:23;;;;;;;;;;;;;;;25.80;57.96;100700.53;7396315;19;1463;-50
2023/08/24 01:16:53;;;;;;;;;;;;;;;25.96;57.47;100705.84;7395464;19;1424;-48
2023/08/24 01:19:28;;;;;;;;;;;;;;;25.86;57.57;100696.25;7395974;19;1395;-49
2023/08/24 01:21:56;;;;;;;;;;;;;;;25.69;57.62;100680.16;7396614;19;1390;-49
2023/08/24 01:24:33;;;;;;;;;;;;;;;25.76;57.97;100685.66;7395473;19;1569;-48
2023/08/24 01:27:04;;;;;;;;;;;;;;;25.93;57.67;100689.13;7395087;19;1851;-48
2023/08/24 01:29:33;;;;;;;;;;;;;;;25.87;57.49;100681.69;7394692;19;1411;-49
2023/08/24 01:32:02;;;;;;;;;;;;;;;25.68;57.81;100675.75;7395637;19;1448;-48
2023/08/24 01:34:31;;;;;;;;;;;;;;;25.59;57.74;100668.72;7396117;19;1368;-48
2023/08/24 01:36:59;;;;;;;;;;;;;;;25.52;57.41;100659.63;7395226;19;1468;-49
2023/08/24 01:39:33;;;;;;;;;;;;;;;25.70;58.34;100654.72;7394870;19;1461;-48
2023/08/24 01:42:05;;;;;;;;;;;;;;;25.82;57.97;100663.25;7394628;19;1409;-48
2023/08/24 01:44:37;;;;;;;;;;;;;;;25.82;57.53;100662.44;7394882;19;1353;-48
2023/08/24 01:47:06;;;;;;;;;;;;;;;25.93;57.41;100657.44;7394677;19;1850;-48
2023/08/24 01:49:36;;;;;;;;;;;;;;;25.93;57.24;100665.56;7395336;19;1524;-48
2023/08/24 01:52:05;;;;;;;;;;;;;;;25.98;56.93;100667.72;7395521;19;1378;-48
2023/08/24 01:54:34;;;;;;;;;;;;;;;26.01;57.00;100651.09;7394394;19;1439;-48
2023/08/24 01:57:06;;;;;;;;;;;;;;;25.86;57.25;100653.75;7395387;19;1412;-48
2023/08/24 01:59:35;;;;;;;;;;;;;;;25.87;57.35;100666.28;7394077;19;1517;-48
2023/08/24 02:02:03;;;;;;;;;;;;;;;25.79;57.53;100658.22;7392816;19;1388;-49
2023/08/24 02:04:31;;;;;;;;;;;;;;;25.93;57.45;100659.31;7393438;19;1463;-48
2023/08/24 02:07:00;;;;;;;;;;;;;;;25.85;57.31;100665.63;7394866;19;1855;-48
2023/08/24 02:09:28;;;;;;;;;;;;;;;25.74;58.14;100668.75;7394612;19;1524;-48
2023/08/24 02:11:56;;;;;;;;;;;;;;;25.68;57.80;100647.81;7395321;19;1507;-48
2023/08/24 02:14:27;;;;;;;;;;;;;;;25.66;56.50;100653.41;7394857;19;1413;-48
2023/08/24 02:16:55;;;;;;;;;;;;;;;25.75;57.89;100648.78;7394416;19;1885;-49
2023/08/24 02:19:24;;;;;;;;;;;;;;;25.72;57.45;100663.50;7393211;19;1562;-48
2023/08/24 02:21:52;;;;;;;;;;;;;;;25.70;57.22;100654.72;7394289;19;1670;-48
2023/08/24 02:24:20;;;;;;;;;;;;;;;25.61;57.47;100653.13;7394428;19;1533;-48
2023/08/24 02:26:49;;;;;;;;;;;;;;;25.62;57.59;100654.81;7393747;19;1488;-48
2023/08/24 02:29:17;;;;;;;;;;;;;;;25.76;57.55;100654.00;7391861;19;1849;-48
2023/08/24 02:31:48;;;;;;;;;;;;;;;25.78;57.71;100651.97;7393566;19;1497;-48
2023/08/24 02:34:16;;;;;;;;;;;;;;;25.68;57.30;100662.19;7393744;19;1544;-48
2023/08/24 02:36:45;;;;;;;;;;;;;;;25.85;57.54;100679.16;7394036;19;1373;-48
2023/08/24 02:39:13;;;;;;;;;;;;;;;25.63;57.24;100666.50;7393242;19;1761;-48
2023/08/24 02:41:42;;;;;;;;;;;;;;;25.57;57.69;100668.06;7394235;19;1517;-49
2023/08/24 02:44:10;;;;;;;;;;;;;;;25.59;58.52;100671.44;7326772;19;13897;-48
2023/08/24 02:46:38;;;;;;;;;;;;;;;25.63;58.09;100671.91;7391052;19;1518;-48
2023/08/24 02:49:09;;;;;;;;;;;;;;;25.83;57.71;100659.53;7391556;19;1861;-48
2023/08/24 02:51:38;;;;;;;;;;;;;;;25.85;57.36;100670.19;7394005;19;1641;-48
2023/08/24 02:54:06;;;;;;;;;;;;;;;25.70;57.78;100672.84;7392864;19;1449;-48
2023/08/24 02:56:34;;;;;;;;;;;;;;;25.58;57.80;100677.84;7393522;19;1598;-48
2023/08/24 02:59:03;;;;;;;;;;;;;;;25.54;56.85;100673.84;7391254;19;1501;-48
2023/08/24 03:01:31;;;;;;;;;;;;;;;25.51;56.83;100679.63;7392149;19;1594;-48
2023/08/24 03:03:59;;;;;;;;;;;;;;;25.50;56.47;100661.69;7385977;19;1535;-48
2023/08/24 03:06:30;;;;;;;;;;;;;;;25.62;56.09;100681.88;7387684;19;1847;-48
2023/08/24 03:08:58;;;;;;;;;;;;;;;25.70;56.34;100678.28;7384777;19;1849;-48
2023/08/24 03:11:27;;;;;;;;;;;;;;;25.71;55.97;100675.38;7386215;19;1500;-48
2023/08/24 03:13:55;;;;;;;;;;;;;;;25.71;55.72;100678.09;7387216;19;1948;-48
2023/08/24 03:16:23;;;;;;;;;;;;;;;25.82;55.32;100670.56;7393173;19;1597;-48
2023/08/24 03:18:51;;;;;;;;;;;;;;;25.84;55.87;100685.59;7394229;19;1726;-48
2023/08/24 03:21:20;;;;;;;;;;;;;;;25.72;55.88;100685.19;7392808;19;1488;-48
2023/08/24 03:23:50;;;;;;;;;;;;;;;25.78;55.50;100683.63;7394226;19;1414;-48
2023/08/24 03:26:20;;;;;;;;;;;;;;;25.83;55.86;100691.22;7391805;19;1578;-48
2023/08/24 03:28:48;;;;;;;;;;;;;;;25.86;55.54;100693.53;7392732;19;1857;-48
2023/08/24 03:31:16;;;;;;;;;;;;;;;25.92;56.32;100679.28;7392168;19;1878;-48
2023/08/24 03:33:45;;;;;;;;;;;;;;;25.95;56.68;100701.44;7394996;19;1555;-49
2023/08/24 03:36:13;;;;;;;;;;;;;;;25.84;57.15;100692.88;7392850;19;1982;-48
2023/08/24 03:38:41;;;;;;;;;;;;;;;25.70;57.60;100687.22;7395272;19;1438;-48
2023/08/24 03:41:12;;;;;;;;;;;;;;;25.75;56.27;100713.78;7396449;19;1545;-48
2023/08/24 03:43:40;;;;;;;;;;;;;;;25.77;55.91;100703.63;7398411;19;1482;-48
2023/08/24 03:46:09;;;;;;;;;;;;;;;25.73;55.80;100703.13;7397603;19;1425;-48
2023/08/24 03:48:37;;;;;;;;;;;;;;;25.34;58.79;100712.19;7396187;19;1849;-48
2023/08/24 03:51:05;;;;;;;;;;;;;;;25.34;58.14;100706.78;7397736;19;1433;-48
2023/08/24 03:53:33;;;;;;;;;;;;;;;25.37;57.13;100711.84;7398181;19;1431;-48
2023/08/24 03:56:02;;;;;;;;;;;;;;;25.68;57.43;100700.13;7398797;19;1401;-48
2023/08/24 03:58:33;;;;;;;;;;;;;;;25.46;58.50;100706.38;7397751;19;1626;-49
2023/08/24 04:01:02;;;;;;;;;;;;;;;25.60;58.26;100697.47;7394702;19;1408;-48
2023/08/24 04:03:30;;;;;;;;;;;;;;;25.56;59.12;100709.69;7395967;19;1536;-48
2023/08/24 04:05:59;;;;;;;;;;;;;;;25.63;59.67;100705.25;7394466;19;1806;-48
2023/08/24 04:08:27;;;;;;;;;;;;;;;25.82;58.83;100700.34;7393509;19;1857;-48
2023/08/24 04:10:55;;;;;;;;;;;;;;;25.88;58.85;100697.75;7394956;19;1512;-48
2023/08/24 04:13:23;;;;;;;;;;;;;;;25.87;58.37;100697.94;7397039;19;1577;-48
2023/08/24 04:15:54;;;;;;;;;;;;;;;25.87;58.44;100681.69;7396265;19;1817;-48
2023/08/24 04:18:23;;;;;;;;;;;;;;;26.07;58.03;100691.00;7396701;19;1689;-48
2023/08/24 04:20:54;;;;;;;;;;;;;;;26.08;57.57;100687.25;7397512;19;1830;-49
2023/08/24 04:23:26;;;;;;;;;;;;;;;26.46;56.92;100703.50;7396165;19;1818;-49
2023/08/24 04:25:54;;;;;;;;;;;;;;;26.70;56.50;100706.94;7394979;19;1810;-48
2023/08/24 04:28:23;;;;;;;;;;;;;;;27.27;55.12;100717.09;7394306;19;1872;-48
2023/08/24 04:30:58;;;;;;;;;;;;;;;27.42;54.46;100719.78;7393944;19;1916;-48
2023/08/24 04:33:26;;;;;;;;;;;;;;;27.24;55.04;100717.50;7395839;19;1819;-48
2023/08/24 04:35:55;;;;;;;;;;;;;;;26.58;56.26;100712.00;7397197;19;1757;-48
2023/08/24 04:38:23;;;;;;;;;;;;;;;26.28;57.17;100716.53;7399333;19;1903;-48
2023/08/24 04:40:52;;;;;;;;;;;;;;;26.33;57.18;100723.09;7398493;19;1842;-48
2023/08/24 04:43:21;;;;;;;;;;;;;;;26.46;56.93;100719.75;7397694;19;1898;-48
2023/08/24 04:45:52;;;;;;;;;;;;;;;26.43;56.94;100722.84;7398792;19;1472;-48
2023/08/24 04:48:23;;;;;;;;;;;;;;;26.33;57.27;100722.28;7399023;19;1860;-48
2023/08/24 04:50:52;;;;;;;;;;;;;;;26.18;57.76;100733.06;7396498;19;1757;-48
2023/08/24 04:53:21;;;;;;;;;;;;;;;26.08;57.86;100727.91;7397374;19;1743;-48
2023/08/24 04:55:49;;;;;;;;;;;;;;;26.00;57.95;100725.28;7399170;19;1678;-48
2023/08/24 04:58:18;;;;;;;;;;;;;;;25.99;58.43;100734.44;7398651;19;1463;-46
2023/08/24 05:00:46;;;;;;;;;;;;;;;26.08;57.89;100733.31;7397157;19;1852;-47
2023/08/24 05:03:14;;;;;;;;;;;;;;;26.08;57.98;100722.50;7398440;19;1764;-48
2023/08/24 05:05:47;;;;;;;;;;;;;;;26.15;57.90;100734.28;7398582;19;1947;-48
2023/08/24 05:08:15;;;;;;;;;;;;;;;26.08;57.66;100733.31;7397229;19;1847;-49
2023/08/24 05:10:43;;;;;;;;;;;;;;;26.10;57.89;100739.44;7396648;19;1864;-49
2023/08/24 05:13:12;;;;;;;;;;;;;;;25.99;58.12;100731.75;7397415;19;1680;-48
2023/08/24 05:15:40;;;;;;;;;;;;;;;25.93;58.30;100738.72;7397108;19;1819;-49
2023/08/24 05:18:08;;;;;;;;;;;;;;;25.93;58.18;100740.59;7396337;19;1853;-49
2023/08/24 05:20:37;;;;;;;;;;;;;;;25.87;58.46;100736.72;7397779;19;1490;-49
2023/08/24 05:23:08;;;;;;;;;;;;;;;25.88;58.58;100743.78;7398300;19;1728;-49
2023/08/24 05:25:36;;;;;;;;;;;;;;;25.95;58.26;100738.56;7398076;19;2208;-50
2023/08/24 05:28:06;;;;;;;;;;;;;;;25.89;58.51;100741.97;7396725;19;1872;-49
2023/08/24 05:30:34;;;;;;;;;;;;;;;26.04;58.15;100739.31;7396308;19;1436;-49
2023/08/24 05:33:02;;;;;;;;;;;;;;;26.07;57.98;100741.66;7396584;19;1726;-49
2023/08/24 05:35:31;;;;;;;;;;;;;;;26.18;58.04;100750.19;7396096;19;1728;-50
2023/08/24 05:37:59;;;;;;;;;;;;;;;26.22;57.62;100738.97;7394583;19;1630;-48
2023/08/24 05:40:30;;;;;;;;;;;;;;;26.25;57.76;100746.75;7395991;19;1393;-48
2023/08/24 05:42:58;;;;;;;;;;;;;;;26.30;57.56;100736.19;7395918;19;1555;-50
2023/08/24 05:45:27;;;;;;;;;;;;;;;26.34;57.52;100737.50;7396240;19;1665;-49
2023/08/24 05:47:55;;;;;;;;;;;;;;;26.32;57.63;100734.13;7396944;19;1718;-50
2023/08/24 05:50:23;;;;;;;;;;;;;;;26.38;57.36;100744.22;7394849;19;1854;-49
2023/08/24 05:52:52;;;;;;;;;;;;;;;26.35;57.23;100744.63;7398160;19;1187;-49
2023/08/24 05:55:20;;;;;;;;;;;;;;;26.35;57.39;100737.31;7396529;19;1736;-48
2023/08/24 05:57:51;;;;;;;;;;;;;;;26.40;57.51;100736.75;7396504;19;1943;-48
2023/08/24 06:00:22;;;;;;;;;;;;;;;26.31;57.52;100752.28;7393268;19;1701;-49
2023/08/24 06:02:50;;;;;;;;;;;;;;;26.30;57.57;100744.31;7396629;19;1769;-49
2023/08/24 06:05:19;;;;;;;;;;;;;;;26.27;57.69;100748.25;7395877;19;1472;-49
2023/08/24 06:07:50;;;;;;;;;;;;;;;26.26;57.70;100735.72;7394964;19;1814;-49
2023/08/24 06:10:19;;;;;;;;;;;;;;;26.36;57.47;100743.56;7395808;19;1912;-49
2023/08/24 06:12:47;;;;;;;;;;;;;;;26.33;57.64;100739.38;7395936;19;1802;-50
2023/08/24 06:15:19;;;;;;;;;;;;;;;26.29;57.90;100737.22;7395875;19;1778;-49
2023/08/24 06:17:47;;;;;;;;;;;;;;;26.29;57.62;100751.63;7396311;19;1839;-48
2023/08/24 06:20:16;;;;;;;;;;;;;;;26.25;57.71;100746.75;7396006;19;1472;-49
2023/08/24 06:22:44;;;;;;;;;;;;;;;26.38;57.69;100749.66;7397963;19;1046;-48
2023/08/24 06:25:12;;;;;;;;;;;;;;;26.38;57.62;100744.22;7395946;19;1475;-48
2023/08/24 06:27:41;;;;;;;;;;;;;;;26.27;57.87;100747.41;7395699;19;1867;-49
2023/08/24 06:30:09;;;;;;;;;;;;;;;26.29;57.89;100757.03;7394499;19;1855;-49
2023/08/24 06:32:41;;;;;;;;;;;;;;;26.34;57.53;100759.19;7395073;19;1816;-48
2023/08/24 06:35:10;;;;;;;;;;;;;;;26.24;58.09;100755.91;7396057;19;1531;-49
2023/08/24 06:37:38;;;;;;;;;;;;;;;26.27;57.83;100756.38;7395455;19;1731;-49
2023/08/24 06:40:07;;;;;;;;;;;;;;;26.32;57.76;100756.69;7396845;19;1753;-49
2023/08/24 06:42:35;;;;;;;;;;;;;;;26.33;57.92;100758.34;7395306;19;1847;-48
2023/08/24 06:45:03;;;;;;;;;;;;;;;26.32;57.69;100758.53;7396164;19;1630;-48
2023/08/24 06:47:32;;;;;;;;;;;;;;;26.42;57.64;100755.56;7397249;19;1453;-49
2023/08/24 06:50:03;;;;;;;;;;;;;;;26.39;57.81;100746.75;7402623;19;1865;-49
2023/08/24 06:52:31;;;;;;;;;;;;;;;26.45;57.71;100750.59;7404066;19;1024;-48
2023/08/24 06:54:59;;;;;;;;;;;;;;;26.44;57.36;100750.78;7404161;19;1646;-49
2023/08/24 06:57:28;;;;;;;;;;;;;;;26.35;57.73;100750.03;7402045;19;1908;-48
2023/08/24 06:59:56;;;;;;;;;;;;;;;26.36;57.73;100751.69;7400847;19;1753;-48
2023/08/24 07:02:25;;;;;;;;;;;;;;;26.38;57.91;100755.06;7402587;19;1686;-48
2023/08/24 07:04:53;;;;;;;;;;;;;;;26.43;57.60;100760.78;7402015;19;1951;-48
2023/08/24 07:07:24;;;;;;;;;;;;;;;26.46;57.53;100767.72;7402951;19;1731;-48
2023/08/24 07:09:52;;;;;;;;;;;;;;;26.26;58.33;100772.81;7400622;19;1874;-48
2023/08/24 07:12:21;;;;;;;;;;;;;;;26.39;57.96;100765.75;7402774;19;1755;-48
2023/08/24 07:14:49;;;;;;;;;;;;;;;26.38;57.82;100771.34;7398806;19;1731;-48
2023/08/24 07:17:18;;;;;;;;;;;;;;;26.46;57.84;100779.41;7397514;19;1761;-48
2023/08/24 07:19:46;;;;;;;;;;;;;;;26.52;57.74;100756.97;7398703;19;1451;-48
2023/08/24 07:22:14;;;;;;;;;;;;;;;26.36;57.97;100755.28;7398413;19;1702;-48
2023/08/24 07:24:45;;;;;;;;;;;;;;;26.34;58.15;100751.03;7398517;19;1767;-48
2023/08/24 07:27:14;;;;;;;;;;;;;;;26.45;57.99;100756.03;7400723;19;1678;-48
2023/08/24 07:29:42;;;;;;;;;;;;;;;26.46;57.85;100756.84;7400221;19;1875;-49
2023/08/24 07:32:10;;;;;;;;;;;;;;;26.51;57.54;100749.84;7401961;19;1820;-48
2023/08/24 07:34:38;;;;;;;;;;;;;;;26.39;58.04;100745.94;7402130;19;1753;-48
2023/08/24 07:37:07;;;;;;;;;;;;;;;26.50;57.53;100745.47;7402828;19;2033;-48
2023/08/24 07:39:35;;;;;;;;;;;;;;;26.55;57.76;100751.16;7402060;19;1864;-49
2023/08/24 07:42:06;;;;;;;;;;;;;;;26.56;57.51;100744.72;7402594;19;1724;-48
2023/08/24 07:44:34;;;;;;;;;;;;;;;26.64;57.65;100753.81;7401110;19;1801;-48
2023/08/24 07:47:02;;;;;;;;;;;;;;;26.51;57.86;100733.59;7401432;19;1816;-48
2023/08/24 07:49:31;;;;;;;;;;;;;;;26.55;57.76;100737.59;7399989;19;1850;-48
2023/08/24 07:51:59;;;;;;;;;;;;;;;26.52;57.80;100743.41;7400634;19;1419;-48
2023/08/24 07:54:27;;;;;;;;;;;;;;;26.56;57.84;100735.72;7399983;19;1705;-48
2023/08/24 07:56:56;;;;;;;;;;;;;;;26.59;57.79;100740.81;7400533;19;1754;-48
2023/08/24 07:59:26;;;;;;;;;;;;;;;26.57;57.87;100735.56;7398578;19;1835;-48
2023/08/24 08:01:55;;;;;;;;;;;;;;;26.53;57.85;100734.25;7401204;19;1852;-48
2023/08/24 08:04:23;;;;;;;;;;;;;;;26.52;57.80;100719.00;7400720;19;1671;-48
2023/08/24 08:06:51;;;;;;;;;;;;;;;26.55;57.72;100723.22;7400309;19;1925;-48
2023/08/24 08:09:20;;;;;;;;;;;;;;;26.50;58.03;100731.91;7401020;19;1841;-48
2023/08/24 08:11:48;;;;;;;;;;;;;;;26.58;57.82;100734.56;7400863;19;1944;-48
2023/08/24 08:14:17;;;;;;;;;;;;;;;26.56;57.83;100742.03;7399536;19;1884;-48
2023/08/24 08:16:47;;;;;;;;;;;;;;;26.49;58.00;100713.13;7399636;19;1892;-48
2023/08/24 08:19:17;;;;;;;;;;;;;;;26.51;57.99;100722.75;7400203;19;1677;-48
2023/08/24 08:21:46;;;;;;;;;;;;;;;26.40;58.14;100731.31;7400732;19;1754;-48
2023/08/24 08:24:14;;;;;;;;;;;;;;;26.50;58.19;100715.66;7400057;19;1734;-48
2023/08/24 08:26:42;;;;;;;;;;;;;;;26.53;58.11;100715.25;7400026;19;1840;-48
2023/08/24 08:29:11;;;;;;;;;;;;;;;26.52;57.99;100723.56;7400357;19;1863;-48
2023/08/24 08:31:39;;;;;;;;;;;;;;;26.51;58.38;100728.16;7400473;19;1746;-48
2023/08/24 08:34:10;;;;;;;;;;;;;;;26.56;57.87;100720.31;7399919;19;1818;-48
2023/08/24 08:36:38;;;;;;;;;;;;;;;26.60;57.98;100726.25;7399871;19;1369;-48
2023/08/24 08:39:07;;;;;;;;;;;;;;;26.52;58.34;100719.00;7399799;19;1825;-48
2023/08/24 08:41:40;;;;;;;;;;;;;;;26.57;58.24;100716.56;7399408;19;1663;-48
2023/08/24 08:44:09;;;;;;;;;;;;;;;26.70;57.89;100701.53;7398891;19;1887;-48
2023/08/24 08:46:37;;;;;;;;;;;;;;;26.58;58.11;100706.59;7397898;19;1750;-48
2023/08/24 08:49:06;;;;;;;;;;;;;;;26.48;58.18;100711.41;7398506;19;1811;-48
2023/08/24 08:51:38;;;;;;;;;;;;;;;26.50;58.21;100710.22;7399181;19;1457;-48
2023/08/24 08:54:07;;;;;;;;;;;;;;;26.44;58.38;100708.25;7398740;19;1817;-48
2023/08/24 08:56:36;;;;;;;;;;;;;;;26.53;58.37;100704.41;7398992;19;1780;-48
2023/08/24 08:59:05;;;;;;;;;;;;;;;26.63;57.85;100712.31;7399881;19;1770;-48
2023/08/24 09:01:33;;;;;;;;;;;;;;;26.58;57.75;100702.03;7398686;19;1575;-48
2023/08/24 09:04:02;;;;;;;;;;;;;;;26.49;58.10;100700.38;7396205;19;1530;-50
2023/08/24 09:06:31;;;;;;;;;;;;;;;26.60;58.00;100715.41;7397880;19;1973;-48
2023/08/24 09:09:02;;;;;;;;;;;;;;;26.61;58.15;100694.53;7398481;19;1488;-48
2023/08/24 09:11:31;;;;;;;;;;;;;;;26.67;57.77;100704.63;7394123;19;1909;-48
2023/08/24 09:13:59;;;;;;;;;;;;;;;26.65;57.75;100701.28;7398693;19;1775;-48
2023/08/24 09:16:31;;;;;;;;;;;;;;;26.63;58.18;100697.91;7398513;19;1946;-49
2023/08/24 09:18:59;;;;;;;;;;;;;;;26.66;57.96;100687.53;7397734;19;1887;-48
2023/08/24 09:21:28;;;;;;;;;;;;;;;26.63;58.17;100682.47;7397182;19;1733;-48
2023/08/24 09:23:57;;;;;;;;;;;;;;;26.75;57.78;100686.38;7398156;19;1497;-48
2023/08/24 09:26:33;;;;;;;;;;;;;;;26.67;57.93;100693.78;7399489;19;1743;-48
2023/08/24 09:29:02;;;;;;;;;;;;;;;26.66;58.20;100692.94;7398599;19;1685;-48
2023/08/24 09:31:38;;;;;;;;;;;;;;;26.62;57.99;100688.94;7397107;19;1846;-48
2023/08/24 09:34:07;;;;;;;;;;;;;;;26.72;57.74;100689.47;7398264;19;1716;-48
2023/08/24 09:36:35;;;;;;;;;;;;;;;26.77;57.83;100683.47;7397866;19;1859;-48
2023/08/24 09:39:06;;;;;;;;;;;;;;;26.79;57.86;100689.56;7397929;19;1851;-49
2023/08/24 09:41:47;;;;;;;;;;;;;;;26.75;57.95;100689.09;7398101;19;1854;-49
2023/08/24 09:44:16;;;;;;;;;;;;;;;26.66;58.04;100679.38;7397447;19;1774;-48
2023/08/24 09:46:44;;;;;;;;;;;;;;;26.68;57.85;100676.47;7397838;19;1668;-48
2023/08/24 09:49:13;;;;;;;;;;;;;;;26.77;57.69;100687.03;7397363;19;1720;-49
2023/08/24 09:51:44;;;;;;;;;;;;;;;26.76;58.03;100687.25;7396107;19;1841;-48
2023/08/24 09:54:13;;;;;;;;;;;;;;;26.81;57.80;100679.34;7395975;19;1454;-48
2023/08/24 09:56:43;;;;;;;;;;;;;;;26.79;57.75;100678.72;7396520;19;1759;-48
2023/08/24 09:59:18;;;;;;;;;;;;;;;26.81;57.75;100679.34;7397510;19;1804;-47
2023/08/24 10:01:47;;;;;;;;;;;;;;;26.83;57.91;100677.28;7398030;19;1690;-48
2023/08/24 10:04:16;;;;;;;;;;;;;;;26.88;57.65;100672.16;7397052;19;1574;-48
2023/08/24 10:06:45;;;;;;;;;;;;;;;26.78;58.02;100669.72;7396542;19;1621;-49
2023/08/24 10:09:17;;;;;;;;;;;;;;;26.82;58.03;100670.19;7396818;19;1931;-48
2023/08/24 10:11:52;;;;;;;;;;;;;;;26.86;57.77;100671.50;7395030;19;1834;-48
2023/08/24 10:14:26;;;;;;;;;;;;;;;26.79;57.98;100660.53;7397225;19;1633;-47
2023/08/24 10:16:55;;;;;;;;;;;;;;;26.72;57.98;100645.22;7397386;19;1767;-48
2023/08/24 10:19:24;;;;;;;;;;;;;;;26.77;58.14;100645.50;7397353;19;1411;-48
2023/08/24 10:21:57;;;;;;;;;;;;;;;26.78;57.97;100644.47;7395968;19;1672;-48
2023/08/24 10:24:25;;;;;;;;;;;;;;;26.77;58.25;100640.06;7402681;19;1506;-48
2023/08/24 10:26:55;;;;;;;;;;;;;;;26.78;58.03;100642.59;7403835;19;1686;-48
2023/08/24 10:29:27;;;;;;;;;;;;;;;26.76;58.04;100624.84;7404689;19;1894;-49
2023/08/24 10:31:55;;;;;;;;;;;;;;;26.79;58.00;100644.28;7401315;19;1850;-48
2023/08/24 10:34:24;;;;;;;;;;;;;;;26.80;58.11;100642.41;7404964;19;1789;-49
2023/08/24 10:36:53;;;;;;;;;;;;;;;26.78;58.16;100636.34;7404736;19;1337;-48
2023/08/24 10:39:29;;;;;;;;;;;;;;;26.74;58.34;100629.59;7404481;19;1462;-49
2023/08/24 10:41:57;;;;;;;;;;;;;;;26.76;58.13;100619.41;7404592;19;1680;-48
2023/08/24 10:44:37;;;;;;;;;;;;;;;26.82;57.87;100628.63;7404465;19;1824;-48
2023/08/24 10:47:09;;;;;;;;;;;;;;;26.78;58.26;100603.78;7402831;19;1734;-49
2023/08/24 10:49:37;;;;;;;;;;;;;;;26.82;58.18;100613.22;7403723;19;1670;-48
2023/08/24 10:52:19;;;;;;;;;;;;;;;26.78;57.93;100617.34;7400664;19;1858;-47
2023/08/24 10:54:48;;;;;;;;;;;;;;;26.87;57.87;100588.22;7403261;19;1476;-48
2023/08/24 10:57:23;;;;;;;;;;;;;;;26.89;57.68;100600.56;7402516;19;1827;-47
2023/08/24 11:00:08;;;;;;;;;;;;;;;26.84;58.29;100585.88;7401506;19;1848;-48
2023/08/24 11:02:49;;;;;;;;;;;;;;;26.85;58.14;100582.16;7403319;19;1726;-48
2023/08/24 11:05:18;;;;;;;;;;;;;;;26.81;58.04;100602.56;7402952;19;1746;-48
2023/08/24 11:07:54;;;;;;;;;;;;;;;26.82;58.08;100583.38;7402350;19;1829;-49
2023/08/24 11:10:22;;;;;;;;;;;;;;;26.84;58.07;100573.19;7401969;19;1843;-49
2023/08/24 11:13:05;;;;;;;;;;;;;;;26.80;58.08;100574.59;7401459;19;1745;-48
2023/08/24 11:15:34;;;;;;;;;;;;;;;26.81;58.11;100575.44;7401779;19;1747;-48
2023/08/24 11:18:17;;;;;;;;;;;;;;;26.68;58.39;100570.69;7402432;19;1757;-48
2023/08/24 11:20:50;;;;;;;;;;;;;;;26.67;58.62;100547.31;7403305;19;1355;-48
2023/08/24 11:23:18;;;;;;;;;;;;;;;26.65;58.50;100538.53;7402956;19;1805;-49
2023/08/24 11:25:47;;;;;;;;;;;;;;;26.64;58.58;100553.97;7402791;19;1719;-49
2023/08/24 11:28:19;;;;;;;;;;;;;;;26.74;58.37;100530.09;7399340;19;1880;-48
2023/08/24 11:30:48;;;;;;;;;;;;;;;26.74;58.41;100526.50;7400689;19;1845;-48
2023/08/24 11:33:18;;;;;;;;;;;;;;;26.70;58.67;100522.50;7401848;19;1721;-47
2023/08/24 11:35:49;;;;;;;;;;;;;;;26.66;58.68;100530.22;7399072;19;1792;-48
2023/08/24 11:38:17;;;;;;;;;;;;;;;26.73;58.33;100519.41;7401186;19;1947;-48
2023/08/24 11:40:45;;;;;;;;;;;;;;;26.67;58.42;100512.88;7401029;19;1892;-49
2023/08/24 11:43:14;;;;;;;;;;;;;;;26.71;58.55;100499.78;7401560;19;1716;-49
2023/08/24 11:45:43;;;;;;;;;;;;;;;26.67;58.38;100503.91;7400910;19;1797;-49
2023/08/24 11:48:12;;;;;;;;;;;;;;;26.67;58.56;100493.91;7401254;19;1658;-48
2023/08/24 11:50:40;;;;;;;;;;;;;;;26.85;58.09;100496.16;7401669;19;1904;-48
2023/08/24 11:53:12;;;;;;;;;;;;;;;26.74;58.32;100485.81;7401947;19;1827;-48
2023/08/24 11:55:42;;;;;;;;;;;;;;;26.74;58.44;100480.38;7401333;19;1682;-48
2023/08/24 11:58:16;;;;;;;;;;;;;;;26.74;58.36;100483.97;7401652;19;1771;-48
2023/08/24 12:00:44;;;;;;;;;;;;;;;26.83;58.44;100481.94;7399741;19;1866;-48
2023/08/24 12:03:13;;;;;;;;;;;;;;;26.77;58.58;100467.28;7400946;19;1859;-49
2023/08/24 12:05:42;;;;;;;;;;;;;;;26.80;58.49;100460.66;7400471;19;1864;-48
2023/08/24 12:08:13;;;;;;;;;;;;;;;26.71;58.70;100472.66;7399961;19;1906;-48
2023/08/24 12:10:44;;;;;;;;;;;;;;;26.73;58.57;100473.31;7400840;19;1879;-48
2023/08/24 12:13:15;;;;;;;;;;;;;;;26.74;58.69;100466.81;7400153;19;1726;-48
2023/08/24 12:15:44;;;;;;;;;;;;;;;26.92;58.02;100463.69;7400311;19;1895;-48
2023/08/24 12:18:13;;;;;;;;;;;;;;;26.88;58.49;100482.22;7399683;19;1639;-48
2023/08/24 12:20:42;;;;;;;;;;;;;;;26.89;58.26;100481.16;7401102;19;1336;-48
2023/08/24 12:23:13;;;;;;;;;;;;;;;26.90;58.41;100466.59;7401574;19;1732;-48
2023/08/24 12:25:45;;;;;;;;;;;;;;;26.79;58.58;100467.09;7400829;19;1741;-48
2023/08/24 12:28:14;;;;;;;;;;;;;;;26.83;58.56;100471.09;7399210;19;1857;-48
2023/08/24 12:30:46;;;;;;;;;;;;;;;26.86;58.23;100476.16;7399737;19;1863;-48
2023/08/24 12:33:23;;;;;;;;;;;;;;;26.91;58.30;100465.53;7399906;19;1701;-48
2023/08/24 12:35:52;;;;;;;;;;;;;;;26.87;58.12;100456.09;7399323;19;1884;-48
2023/08/24 12:38:23;;;;;;;;;;;;;;;26.94;57.98;100462.44;7399068;19;1819;-48
2023/08/24 12:40:52;;;;;;;;;;;;;;;26.91;58.29;100456.56;7398875;19;1751;-48
2023/08/24 12:43:20;;;;;;;;;;;;;;;26.91;58.49;100456.56;7397967;19;1642;-48
2023/08/24 12:45:48;;;;;;;;;;;;;;;26.96;57.89;100456.81;7398579;19;1808;-48
2023/08/24 12:48:16;;;;;;;;;;;;;;;26.93;58.16;100454.50;7398913;19;1807;-48
2023/08/24 12:50:45;;;;;;;;;;;;;;;26.94;58.05;100461.63;7399928;19;1858;-48
2023/08/24 12:53:13;;;;;;;;;;;;;;;26.94;58.24;100456.19;7399268;19;1802;-48
2023/08/24 12:55:45;;;;;;;;;;;;;;;26.96;58.14;100454.94;7399871;19;1734;-48
2023/08/24 12:58:13;;;;;;;;;;;;;;;26.95;58.35;100447.81;7398944;19;1475;-48
2023/08/24 13:00:41;;;;;;;;;;;;;;;27.04;58.02;100461.25;7398320;19;1751;-48